createdAt,value
2018-12-27T00:00:20.163Z,34.10
2018-12-27T00:02:54.823Z,33.63
2018-12-27T00:05:19.836Z,29.30
2018-12-27T00:07:48.672Z,33.57
2018-12-27T00:10:17.516Z,32.47
2018-12-27T00:12:46.490Z,31.93
2018-12-27T00:15:15.469Z,34.57
2018-12-27T00:17:44.271Z,29.87
2018-12-27T00:20:13.119Z,33.20
2018-12-27T00:22:41.940Z,32.20
2018-12-27T00:25:10.874Z,31.67
2018-12-27T00:27:39.703Z,31.17
2018-12-27T00:30:08.702Z,29.63
2018-12-27T00:32:37.713Z,31.27
2018-12-27T00:35:06.699Z,31.53
2018-12-27T00:37:35.959Z,29.07
2018-12-27T00:40:05.030Z,33.60
2018-12-27T00:42:34.031Z,31.67
2018-12-27T00:45:03.025Z,32.90
2018-12-27T00:47:32.107Z,30.33
2018-12-27T00:50:01.140Z,32.20
2018-12-27T00:52:30.135Z,32.20
2018-12-27T00:54:59.118Z,32.77
2018-12-27T00:57:28.113Z,30.70
2018-12-27T00:59:57.090Z,30.57
2018-12-27T01:02:26.082Z,34.07
2018-12-27T01:04:55.167Z,32.73
2018-12-27T01:07:24.157Z,31.07
2018-12-27T01:09:53.146Z,34.40
2018-12-27T01:12:24.918Z,35.30
2018-12-27T01:14:53.907Z,31.87
2018-12-27T01:17:22.892Z,29.70
2018-12-27T01:19:51.883Z,28.53
2018-12-27T01:22:22.546Z,31.10
2018-12-27T01:24:51.571Z,28.63
2018-12-27T01:27:20.606Z,31.97
2018-12-27T01:29:49.624Z,29.67
2018-12-27T01:32:18.660Z,34.87
2018-12-27T01:34:47.778Z,32.20
2018-12-27T01:37:16.850Z,33.77
2018-12-27T01:39:45.914Z,34.07
2018-12-27T01:42:14.883Z,33.97
2018-12-27T01:44:43.883Z,37.20
2018-12-27T01:47:12.875Z,29.17
2018-12-27T01:49:41.864Z,30.67
2018-12-27T01:52:10.850Z,34.63
2018-12-27T01:54:39.818Z,30.93
2018-12-27T01:57:08.813Z,32.60
2018-12-27T01:59:37.874Z,32.37
2018-12-27T02:02:06.880Z,30.97
2018-12-27T02:04:35.850Z,33.50
2018-12-27T02:07:04.817Z,31.53
2018-12-27T02:09:33.835Z,30.47
2018-12-27T02:12:02.834Z,31.17
2018-12-27T02:14:31.878Z,31.53
2018-12-27T02:17:00.857Z,33.80
2018-12-27T02:19:29.855Z,28.97
2018-12-27T02:21:58.822Z,31.03
2018-12-27T02:24:27.871Z,33.10
2018-12-27T02:26:56.893Z,29.83
2018-12-27T02:29:25.846Z,33.87
2018-12-27T02:31:54.824Z,31.67
2018-12-27T02:34:23.827Z,32.43
2018-12-27T02:36:52.864Z,33.03
2018-12-27T02:39:21.854Z,34.33
2018-12-27T02:41:51.114Z,29.97
2018-12-27T02:44:20.114Z,27.90
2018-12-27T02:46:49.099Z,32.00
2018-12-27T02:49:18.115Z,29.03
2018-12-27T02:51:47.165Z,30.40
2018-12-27T02:54:16.166Z,26.13
2018-12-27T02:56:45.176Z,31.83
2018-12-27T02:59:15.305Z,32.00
2018-12-27T03:01:44.320Z,31.73
2018-12-27T03:04:13.293Z,31.40
2018-12-27T03:06:42.363Z,28.90
2018-12-27T03:09:11.412Z,31.23
2018-12-27T03:11:40.394Z,35.40
2018-12-27T03:14:09.415Z,26.90
2018-12-27T03:16:38.410Z,34.77
2018-12-27T03:19:07.417Z,29.50
2018-12-27T03:21:36.936Z,33.07
2018-12-27T03:24:05.929Z,33.20
2018-12-27T03:26:34.899Z,31.13
2018-12-27T03:29:03.876Z,29.10
2018-12-27T03:31:32.872Z,26.37
2018-12-27T03:34:01.856Z,26.73
2018-12-27T03:36:30.857Z,30.50
2018-12-27T03:38:59.841Z,29.27
2018-12-27T03:41:28.819Z,29.40
2018-12-27T03:43:57.843Z,25.57
2018-12-27T03:46:26.832Z,27.90
2018-12-27T03:48:55.823Z,29.53
2018-12-27T03:51:24.838Z,29.53
2018-12-27T03:53:53.866Z,30.40
2018-12-27T03:56:22.859Z,28.40
2018-12-27T03:58:51.860Z,27.00
2018-12-27T04:01:20.871Z,29.53
2018-12-27T04:03:49.842Z,28.40
2018-12-27T04:06:18.807Z,30.53
2018-12-27T04:08:47.939Z,31.57
2018-12-27T04:11:16.906Z,30.27
2018-12-27T04:13:45.947Z,28.23
2018-12-27T04:16:14.784Z,27.17
2018-12-27T04:18:43.587Z,27.37
2018-12-27T04:21:12.441Z,25.27
2018-12-27T04:23:41.738Z,29.17
2018-12-27T04:26:11.096Z,31.97
2018-12-27T04:28:39.939Z,31.87
2018-12-27T04:31:08.916Z,30.20
2018-12-27T04:33:38.498Z,30.07
2018-12-27T04:36:08.679Z,30.30
2018-12-27T04:38:37.572Z,29.53
2018-12-27T04:41:06.486Z,30.37
2018-12-27T04:43:35.961Z,36.80
2018-12-27T04:46:04.796Z,29.50
2018-12-27T04:48:33.627Z,30.60
2018-12-27T04:51:02.475Z,29.63
2018-12-27T04:53:31.291Z,32.00
2018-12-27T04:56:00.124Z,32.20
2018-12-27T04:58:28.966Z,30.40
2018-12-27T05:00:57.825Z,29.00
2018-12-27T05:03:26.645Z,34.47
2018-12-27T05:05:55.487Z,29.50
2018-12-27T05:08:24.432Z,31.13
2018-12-27T05:10:53.271Z,31.23
2018-12-27T05:13:22.086Z,34.70
2018-12-27T05:15:50.911Z,32.43
2018-12-27T05:18:19.746Z,33.60
2018-12-27T05:20:48.590Z,32.83
2018-12-27T05:23:17.395Z,28.73
2018-12-27T05:25:46.305Z,41.27
2018-12-27T05:28:15.132Z,31.83
2018-12-27T05:30:44.051Z,38.67
2018-12-27T05:33:12.890Z,33.10
2018-12-27T05:35:41.706Z,28.33
2018-12-27T05:38:10.638Z,35.13
2018-12-27T05:40:39.440Z,30.27
2018-12-27T05:43:08.407Z,36.60
2018-12-27T05:45:37.286Z,31.90
2018-12-27T05:48:06.148Z,31.83
2018-12-27T05:50:35.072Z,35.40
2018-12-27T05:53:04.119Z,33.67
2018-12-27T05:55:34.456Z,31.73
2018-12-27T05:58:03.740Z,31.40
2018-12-27T06:00:32.581Z,41.10
2018-12-27T06:03:01.399Z,33.43
2018-12-27T06:05:30.377Z,34.17
2018-12-27T06:07:59.235Z,40.90
2018-12-27T06:10:28.054Z,33.50
2018-12-27T06:12:56.997Z,34.70
2018-12-27T06:15:26.322Z,34.20
2018-12-27T06:17:55.241Z,35.90
2018-12-27T06:20:24.074Z,32.63
2018-12-27T06:22:52.891Z,35.80
2018-12-27T06:25:21.888Z,31.33
2018-12-27T06:27:50.886Z,31.27
2018-12-27T06:30:19.745Z,32.37
2018-12-27T06:32:48.626Z,33.83
2018-12-27T06:35:17.806Z,32.70
2018-12-27T06:37:46.775Z,32.73
2018-12-27T06:40:15.702Z,34.53
2018-12-27T06:42:44.540Z,29.47
2018-12-27T06:45:13.498Z,34.30
2018-12-27T06:47:42.371Z,32.77
2018-12-27T06:50:11.269Z,35.40
2018-12-27T06:52:40.230Z,31.03
2018-12-27T06:55:09.067Z,32.63
2018-12-27T06:57:37.980Z,31.97
2018-12-27T07:00:07.160Z,32.27
2018-12-27T07:02:35.977Z,27.80
2018-12-27T07:05:05.010Z,34.53
2018-12-27T07:07:33.879Z,32.37
2018-12-27T07:10:02.798Z,33.23
2018-12-27T07:12:31.631Z,31.20
2018-12-27T07:15:00.467Z,31.20
2018-12-27T07:17:29.319Z,29.57
2018-12-27T07:19:58.147Z,32.30
2018-12-27T07:22:26.978Z,34.33
2018-12-27T07:24:55.819Z,31.27
2018-12-27T07:27:24.686Z,31.10
2018-12-27T07:29:53.505Z,30.97
2018-12-27T07:32:22.344Z,34.80
2018-12-27T07:34:56.376Z,35.87
2018-12-27T07:37:21.831Z,27.83
2018-12-27T07:39:50.675Z,37.40
2018-12-27T07:42:19.510Z,35.20
2018-12-27T07:44:48.339Z,34.00
2018-12-27T07:47:17.236Z,31.50
2018-12-27T07:49:46.205Z,35.93
2018-12-27T07:52:15.055Z,36.70
2018-12-27T07:54:43.894Z,34.03
2018-12-27T07:57:12.721Z,32.47
2018-12-27T07:59:41.547Z,31.33
2018-12-27T08:02:10.415Z,28.87
2018-12-27T08:04:39.249Z,41.53
2018-12-27T08:07:08.106Z,30.17
2018-12-27T08:09:36.924Z,30.47
2018-12-27T08:12:05.780Z,32.97
2018-12-27T08:14:34.620Z,37.00
2018-12-27T08:17:03.494Z,30.90
2018-12-27T08:19:32.308Z,30.13
2018-12-27T08:22:01.236Z,36.00
2018-12-27T08:24:30.122Z,31.30
2018-12-27T08:26:59.008Z,29.57
2018-12-27T08:29:27.940Z,29.37
2018-12-27T08:31:56.786Z,33.00
2018-12-27T08:34:25.598Z,28.03
2018-12-27T08:36:54.577Z,35.77
2018-12-27T08:39:23.483Z,31.67
2018-12-27T08:41:52.351Z,34.77
2018-12-27T08:44:21.303Z,29.67
2018-12-27T08:46:50.118Z,27.10
2018-12-27T08:49:18.960Z,37.87
2018-12-27T08:51:48.091Z,30.63
2018-12-27T08:54:16.942Z,31.67
2018-12-27T08:56:45.790Z,31.17
2018-12-27T08:59:14.623Z,33.90
2018-12-27T09:01:43.451Z,29.87
2018-12-27T09:04:12.370Z,29.40
2018-12-27T09:06:41.303Z,26.93
2018-12-27T09:09:10.185Z,28.93
2018-12-27T09:11:39.043Z,28.57
2018-12-27T09:14:07.882Z,27.10
2018-12-27T09:16:36.722Z,29.63
2018-12-27T09:19:05.552Z,29.80
2018-12-27T09:21:34.428Z,32.17
2018-12-27T09:24:03.314Z,29.83
2018-12-27T09:26:32.170Z,35.40
2018-12-27T09:29:01.011Z,29.63
2018-12-27T09:31:29.917Z,35.40
2018-12-27T09:33:58.746Z,31.67
2018-12-27T09:36:27.649Z,31.87
2018-12-27T09:38:56.455Z,34.87
2018-12-27T09:41:25.303Z,34.93
2018-12-27T09:43:54.180Z,35.23
2018-12-27T09:46:22.999Z,28.20
2018-12-27T09:48:51.858Z,33.70
2018-12-27T09:51:20.759Z,27.80
2018-12-27T09:53:49.685Z,31.30
2018-12-27T09:56:18.649Z,30.33
2018-12-27T09:58:47.654Z,31.90
2018-12-27T10:01:16.477Z,30.47
2018-12-27T10:03:45.336Z,36.03
2018-12-27T10:06:14.244Z,32.87
2018-12-27T10:08:43.354Z,32.63
2018-12-27T10:11:12.263Z,33.33
2018-12-27T10:13:41.231Z,31.20
2018-12-27T10:16:11.051Z,37.63
2018-12-27T10:18:39.943Z,31.30
2018-12-27T10:21:08.859Z,31.70
2018-12-27T10:23:37.704Z,33.93
2018-12-27T10:26:06.610Z,30.13
2018-12-27T10:28:35.462Z,36.20
2018-12-27T10:31:04.304Z,31.30
2018-12-27T10:33:33.154Z,36.20
2018-12-27T10:36:02.244Z,32.07
2018-12-27T10:38:31.086Z,33.93
2018-12-27T10:40:59.935Z,29.07
2018-12-27T10:43:28.782Z,33.40
2018-12-27T10:45:57.634Z,27.93
2018-12-27T10:48:26.473Z,28.40
2018-12-27T10:50:55.311Z,35.93
2018-12-27T10:53:24.171Z,31.13
2018-12-27T10:55:53.097Z,32.23
2018-12-27T10:58:22.079Z,33.37
2018-12-27T11:00:50.911Z,31.37
2018-12-27T11:03:19.747Z,32.10
2018-12-27T11:05:49.071Z,30.57
2018-12-27T11:08:18.137Z,31.03
2018-12-27T11:10:47.166Z,28.47
2018-12-27T11:13:15.995Z,32.83
2018-12-27T11:15:44.834Z,32.10
2018-12-27T11:18:13.687Z,28.77
2018-12-27T11:20:42.590Z,32.20
2018-12-27T11:23:11.466Z,28.80
2018-12-27T11:25:40.276Z,28.63
2018-12-27T11:28:09.136Z,33.57
2018-12-27T11:30:37.962Z,37.47
2018-12-27T11:33:06.793Z,29.57
2018-12-27T11:35:35.634Z,31.50
2018-12-27T11:38:04.616Z,26.80
2018-12-27T11:40:33.470Z,31.03
2018-12-27T11:43:02.276Z,32.63
2018-12-27T11:45:31.180Z,30.60
2018-12-27T11:48:00.007Z,29.53
2018-12-27T11:50:28.846Z,29.17
2018-12-27T11:52:57.657Z,28.27
2018-12-27T11:55:26.503Z,30.90
2018-12-27T11:57:55.486Z,30.27
2018-12-27T12:00:24.337Z,28.10
2018-12-27T12:02:53.244Z,30.10
2018-12-27T12:05:27.872Z,25.97
2018-12-27T12:07:59.315Z,35.80
2018-12-27T12:10:28.466Z,26.30
2018-12-27T12:12:57.558Z,31.80
2018-12-27T12:15:26.379Z,28.77
2018-12-27T12:17:55.252Z,29.50
2018-12-27T12:20:24.053Z,29.33
2018-12-27T12:22:52.870Z,32.40
2018-12-27T12:25:21.828Z,34.40
2018-12-27T12:27:50.825Z,28.80
2018-12-27T12:30:19.775Z,30.83
2018-12-27T12:32:48.583Z,32.63
2018-12-27T12:35:17.491Z,30.90
2018-12-27T12:37:47.043Z,32.67
2018-12-27T12:40:15.881Z,31.70
2018-12-27T12:42:44.996Z,37.77
2018-12-27T12:45:13.893Z,28.43
2018-12-27T12:47:42.791Z,38.00
2018-12-27T12:50:11.724Z,29.13
2018-12-27T12:52:40.559Z,30.53
2018-12-27T12:55:09.495Z,31.70
2018-12-27T12:57:38.360Z,30.17
2018-12-27T13:00:09.872Z,34.70
2018-12-27T13:02:38.846Z,29.67
2018-12-27T13:05:08.074Z,31.67
2018-12-27T13:07:37.081Z,29.17
2018-12-27T13:10:06.072Z,29.27
2018-12-27T13:12:34.982Z,25.93
2018-12-27T13:15:04.276Z,33.87
2018-12-27T13:17:33.126Z,27.47
2018-12-27T13:20:02.195Z,29.13
2018-12-27T13:22:31.033Z,27.77
2018-12-27T13:24:59.839Z,29.00
2018-12-27T13:27:28.676Z,26.97
2018-12-27T13:29:57.574Z,31.10
2018-12-27T13:32:26.427Z,37.53
2018-12-27T13:34:55.318Z,33.33
2018-12-27T13:37:24.267Z,26.50
2018-12-27T13:39:53.209Z,29.83
2018-12-27T13:42:22.026Z,28.90
2018-12-27T13:44:50.842Z,29.90
2018-12-27T13:47:19.817Z,32.80
2018-12-27T13:49:48.735Z,28.37
2018-12-27T13:52:17.783Z,27.33
2018-12-27T13:54:46.679Z,27.00
2018-12-27T13:57:15.568Z,30.30
2018-12-27T13:59:44.386Z,31.93
2018-12-27T14:02:13.387Z,32.57
2018-12-27T14:04:42.211Z,27.83
2018-12-27T14:07:11.078Z,31.43
2018-12-27T14:09:39.890Z,35.03
2018-12-27T14:12:08.718Z,29.70
2018-12-27T14:14:37.610Z,31.00
2018-12-27T14:17:06.432Z,28.80
2018-12-27T14:19:35.238Z,26.80
2018-12-27T14:22:04.074Z,32.70
2018-12-27T14:24:32.899Z,29.30
2018-12-27T14:27:01.714Z,28.77
2018-12-27T14:29:30.542Z,29.20
2018-12-27T14:31:59.434Z,29.10
2018-12-27T14:34:28.261Z,31.23
2018-12-27T14:36:57.078Z,32.10
2018-12-27T14:39:26.035Z,30.10
2018-12-27T14:41:54.852Z,29.43
2018-12-27T14:44:23.831Z,30.70
2018-12-27T14:46:52.660Z,29.67
2018-12-27T14:49:21.566Z,28.60
2018-12-27T14:51:50.375Z,26.57
2018-12-27T14:54:19.199Z,35.00
2018-12-27T14:56:48.166Z,27.63
2018-12-27T14:59:17.066Z,31.50
2018-12-27T15:01:45.964Z,37.90
2018-12-27T15:04:14.807Z,27.93
2018-12-27T15:06:47.189Z,28.70
2018-12-27T15:09:14.239Z,29.20
2018-12-27T15:11:43.099Z,32.67
2018-12-27T15:14:11.927Z,32.83
2018-12-27T15:16:40.848Z,28.80
2018-12-27T15:19:09.671Z,29.27
2018-12-27T15:21:38.763Z,27.80
2018-12-27T15:24:07.608Z,28.87
2018-12-27T15:26:36.741Z,29.17
2018-12-27T15:29:05.726Z,31.50
2018-12-27T15:31:34.616Z,31.60
2018-12-27T15:34:03.446Z,28.27
2018-12-27T15:36:32.308Z,29.30
2018-12-27T15:39:02.078Z,33.20
2018-12-27T15:41:31.063Z,30.00
2018-12-27T15:43:59.880Z,29.17
2018-12-27T15:46:28.788Z,36.90
2018-12-27T15:48:57.602Z,27.13
2018-12-27T15:51:26.484Z,36.47
2018-12-27T15:53:56.269Z,28.77
2018-12-27T15:56:25.107Z,29.50
2018-12-27T15:58:54.039Z,30.30
2018-12-27T16:01:22.866Z,30.07
2018-12-27T16:03:51.713Z,28.03
2018-12-27T16:06:20.740Z,25.97
2018-12-27T16:08:49.619Z,28.73
2018-12-27T16:11:18.451Z,31.83
2018-12-27T16:13:47.468Z,34.10
2018-12-27T16:16:16.289Z,29.13
2018-12-27T16:18:45.142Z,26.27
2018-12-27T16:21:13.936Z,31.97
2018-12-27T16:23:42.820Z,34.63
2018-12-27T16:26:11.695Z,35.00
2018-12-27T16:28:40.507Z,31.23
2018-12-27T16:31:09.531Z,32.63
2018-12-27T16:33:38.390Z,33.20
2018-12-27T16:36:07.206Z,33.73
2018-12-27T16:38:36.119Z,34.07
2018-12-27T16:41:05.190Z,36.50
2018-12-27T16:43:34.012Z,32.93
2018-12-27T16:46:02.871Z,35.23
2018-12-27T16:48:31.703Z,33.57
2018-12-27T16:51:00.532Z,36.27
2018-12-27T16:53:29.367Z,39.77
2018-12-27T16:55:58.263Z,34.97
2018-12-27T16:58:27.123Z,38.03
2018-12-27T17:00:56.026Z,33.67
2018-12-27T17:03:24.914Z,34.43
2018-12-27T17:05:53.968Z,39.87
2018-12-27T17:08:22.782Z,35.93
2018-12-27T17:10:51.611Z,40.90
2018-12-27T17:13:20.625Z,40.80
2018-12-27T17:15:49.519Z,35.63
2018-12-27T17:18:18.415Z,40.80
2018-12-27T17:20:47.358Z,48.23
2018-12-27T17:23:16.194Z,49.93
2018-12-27T17:25:45.116Z,47.17
2018-12-27T17:28:13.984Z,52.67
2018-12-27T17:30:42.940Z,53.90
2018-12-27T17:33:11.772Z,47.70
2018-12-27T17:35:40.883Z,60.10
2018-12-27T17:38:09.694Z,63.27
2018-12-27T17:40:38.546Z,57.00
2018-12-27T17:43:07.360Z,71.60
2018-12-27T17:45:36.266Z,61.30
2018-12-27T17:48:05.198Z,57.93
2018-12-27T17:50:34.098Z,55.77
2018-12-27T17:53:02.950Z,53.93
2018-12-27T17:55:31.783Z,56.50
2018-12-27T17:58:00.631Z,50.37
2018-12-27T18:00:29.471Z,53.10
2018-12-27T18:02:58.282Z,61.30
2018-12-27T18:05:27.144Z,52.07
2018-12-27T18:07:55.952Z,50.93
2018-12-27T18:10:24.913Z,45.37
2018-12-27T18:12:54.227Z,44.90
2018-12-27T18:15:23.060Z,49.07
2018-12-27T18:17:52.042Z,43.67
2018-12-27T18:20:21.017Z,43.30
2018-12-27T18:22:49.952Z,44.83
2018-12-27T18:25:18.774Z,45.43
2018-12-27T18:27:47.669Z,40.27
2018-12-27T18:30:16.483Z,40.13
2018-12-27T18:32:45.391Z,45.60
2018-12-27T18:35:14.268Z,43.07
2018-12-27T18:37:43.166Z,38.17
2018-12-27T18:40:12.072Z,37.90
2018-12-27T18:42:40.906Z,35.33
2018-12-27T18:45:10.175Z,38.03
2018-12-27T18:47:39.105Z,37.30
2018-12-27T18:50:08.079Z,40.50
2018-12-27T18:52:36.971Z,34.83
2018-12-27T18:55:06.039Z,37.07
2018-12-27T18:57:34.896Z,37.40
2018-12-27T19:00:04.908Z,33.03
2018-12-27T19:02:33.747Z,34.80
2018-12-27T19:05:02.595Z,32.37
2018-12-27T19:07:31.511Z,39.60
2018-12-27T19:10:00.652Z,32.97
2018-12-27T19:13:21.792Z,31.87
2018-12-27T19:16:02.574Z,35.83
2018-12-27T19:18:40.254Z,34.57
2018-12-27T19:21:40.127Z,30.93
2018-12-27T19:24:09.034Z,28.83
2018-12-27T19:26:37.939Z,27.50
2018-12-27T19:29:06.865Z,32.87
2018-12-27T19:31:35.811Z,30.90
2018-12-27T19:34:04.759Z,35.30
2018-12-27T19:36:33.614Z,30.93
2018-12-27T19:39:02.484Z,32.47
2018-12-27T19:41:31.344Z,28.90
2018-12-27T19:44:00.315Z,30.33
2018-12-27T19:46:29.408Z,31.77
2018-12-27T19:48:58.407Z,32.37
2018-12-27T19:51:28.234Z,39.87
2018-12-27T19:53:57.076Z,31.77
2018-12-27T19:56:26.043Z,30.30
2018-12-27T19:58:55.105Z,33.37
2018-12-27T20:01:24.077Z,27.70
2018-12-27T20:03:52.934Z,37.20
2018-12-27T20:06:21.756Z,28.27
2018-12-27T20:08:50.684Z,31.73
2018-12-27T20:11:19.538Z,36.73
2018-12-27T20:13:48.463Z,30.30
2018-12-27T20:16:17.292Z,34.50
2018-12-27T20:18:46.169Z,33.90
2018-12-27T20:21:15.034Z,30.80
2018-12-27T20:23:43.859Z,35.43
2018-12-27T20:26:12.705Z,35.43
2018-12-27T20:28:41.548Z,34.00
2018-12-27T20:31:10.567Z,31.57
2018-12-27T20:33:39.382Z,32.40
2018-12-27T20:36:08.242Z,36.67
2018-12-27T20:38:37.079Z,29.50
2018-12-27T20:41:05.967Z,37.97
2018-12-27T20:43:34.819Z,31.23
2018-12-27T20:46:03.759Z,32.90
2018-12-27T20:48:32.603Z,30.93
2018-12-27T20:51:01.576Z,32.07
2018-12-27T20:53:30.427Z,37.00
2018-12-27T20:55:59.794Z,36.83
2018-12-27T20:58:28.865Z,33.60
2018-12-27T21:00:57.883Z,39.90
2018-12-27T21:03:26.742Z,31.23
2018-12-27T21:05:55.587Z,34.03
2018-12-27T21:08:24.498Z,38.73
2018-12-27T21:10:53.361Z,34.90
2018-12-27T21:13:22.187Z,29.70
2018-12-27T21:15:51.087Z,35.13
2018-12-27T21:18:20.016Z,41.00
2018-12-27T21:20:48.886Z,40.30
2018-12-27T21:23:17.723Z,37.10
2018-12-27T21:25:46.724Z,34.57
2018-12-27T21:28:15.554Z,38.03
2018-12-27T21:30:44.411Z,37.77
2018-12-27T21:33:13.288Z,36.30
2018-12-27T21:35:42.132Z,38.83
2018-12-27T21:38:11.064Z,35.83
2018-12-27T21:40:39.974Z,37.50
2018-12-27T21:43:08.819Z,45.20
2018-12-27T21:45:37.646Z,37.43
2018-12-27T21:48:06.592Z,34.53
2018-12-27T21:50:35.502Z,38.83
2018-12-27T21:53:04.463Z,39.13
2018-12-27T21:55:33.279Z,34.10
2018-12-27T21:58:02.187Z,37.17
2018-12-27T22:00:31.006Z,34.93
2018-12-27T22:02:59.855Z,37.67
2018-12-27T22:05:28.782Z,37.40
2018-12-27T22:07:57.804Z,35.47
2018-12-27T22:10:26.662Z,35.27
2018-12-27T22:12:55.535Z,38.30
2018-12-27T22:15:24.357Z,38.90
2018-12-27T22:17:53.262Z,33.43
2018-12-27T22:20:22.178Z,37.00
2018-12-27T22:22:51.011Z,32.80
2018-12-27T22:25:19.954Z,34.57
2018-12-27T22:27:48.814Z,39.20
2018-12-27T22:30:17.745Z,34.97
2018-12-27T22:32:46.680Z,41.23
2018-12-27T22:35:15.615Z,28.87
2018-12-27T22:37:44.426Z,35.47
2018-12-27T22:40:13.427Z,32.63
2018-12-27T22:42:42.279Z,34.70
2018-12-27T22:45:11.446Z,35.93
2018-12-27T22:47:40.360Z,33.20
2018-12-27T22:50:09.264Z,37.57
2018-12-27T22:52:38.087Z,30.07
2018-12-27T22:55:06.911Z,33.23
2018-12-27T22:57:35.818Z,30.93
2018-12-27T23:00:09.575Z,31.67
2018-12-27T23:02:38.470Z,32.17
2018-12-27T23:05:07.487Z,31.07
2018-12-27T23:07:36.326Z,35.70
2018-12-27T23:10:05.496Z,31.13
2018-12-27T23:12:34.324Z,30.97
2018-12-27T23:15:03.255Z,32.27
2018-12-27T23:17:32.087Z,37.00
2018-12-27T23:20:01.023Z,28.73
2018-12-27T23:22:29.936Z,31.33
2018-12-27T23:24:58.784Z,30.70
2018-12-27T23:27:27.688Z,30.03
2018-12-27T23:29:56.574Z,36.60
2018-12-27T23:32:25.465Z,28.77
2018-12-27T23:34:54.266Z,32.77
2018-12-27T23:37:23.134Z,29.77
2018-12-27T23:39:51.938Z,29.63
2018-12-27T23:42:20.831Z,25.60
2018-12-27T23:44:49.675Z,27.67
2018-12-27T23:47:18.498Z,30.37
2018-12-27T23:49:47.355Z,28.07
2018-12-27T23:52:16.218Z,27.60
2018-12-27T23:54:45.165Z,26.80
2018-12-27T23:57:14.106Z,27.27
2018-12-27T23:59:42.952Z,31.00
